EZY9178 LOWW-LGSK
Flight info
| Callsign | EZY9178 |
|---|---|
| Flight time | 1h 38m |
| Altitude | 39000 |
| Route | EWUK1C/29 ARSIN DCT BABIT T23 VAGEN L617 MAKED UL617 IBIDI |
| Aircraft | A20N/M-SDE2E3FGHIRWXY/LB1 |
Departure
| Time | 2026-04-24 20:03 |
|---|---|
| Airport | Vienna International Airport (LOWW) |
Arrival
| Time | 2026-04-24 21:41 |
|---|---|
| Airport | Skiathos Island National Airport (LGSK) |
| Time | Latitude | Longitude | Altitude | Speed | Heading |
|---|---|---|---|---|---|
| 2026-04-24 19:35 | 48.12052 | 16.55636 | 623 ft | 0 kts | 115° |
| 2026-04-24 19:36 | 48.11985 | 16.55590 | 618 ft | 0 kts | 100° |
| 2026-04-24 19:52 | 48.11987 | 16.55574 | 620 ft | 4 kts | 103° |
| 2026-04-24 19:52 | 48.11995 | 16.55536 | 620 ft | 4 kts | 123° |
| 2026-04-24 19:53 | 48.12012 | 16.55512 | 618 ft | 4 kts | 184° |
| 2026-04-24 19:53 | 48.12023 | 16.55516 | 618 ft | 1 kts | 206° |
| 2026-04-24 19:53 | 48.12024 | 16.55516 | 618 ft | 0 kts | 206° |
| 2026-04-24 19:56 | 48.11994 | 16.55495 | 611 ft | 10 kts | 205° |
| 2026-04-24 19:57 | 48.11915 | 16.55443 | 610 ft | 14 kts | 197° |
| 2026-04-24 19:57 | 48.11822 | 16.55436 | 616 ft | 10 kts | 157° |
| 2026-04-24 19:57 | 48.11778 | 16.55528 | 612 ft | 15 kts | 116° |
| 2026-04-24 19:57 | 48.11722 | 16.55696 | 614 ft | 20 kts | 115° |
| 2026-04-24 19:58 | 48.11658 | 16.55897 | 623 ft | 22 kts | 116° |
| 2026-04-24 19:58 | 48.11588 | 16.56115 | 619 ft | 24 kts | 115° |
| 2026-04-24 19:58 | 48.11515 | 16.56340 | 617 ft | 21 kts | 115° |
| 2026-04-24 19:58 | 48.11460 | 16.56512 | 613 ft | 16 kts | 116° |
| 2026-04-24 19:59 | 48.11407 | 16.56676 | 617 ft | 18 kts | 116° |
| 2026-04-24 19:59 | 48.11347 | 16.56858 | 614 ft | 20 kts | 116° |
| 2026-04-24 19:59 | 48.11300 | 16.57001 | 610 ft | 15 kts | 116° |
| 2026-04-24 19:59 | 48.11249 | 16.57156 | 620 ft | 18 kts | 116° |
| 2026-04-24 20:00 | 48.11195 | 16.57322 | 622 ft | 18 kts | 116° |
| 2026-04-24 20:00 | 48.11143 | 16.57477 | 618 ft | 11 kts | 117° |
| 2026-04-24 20:00 | 48.11100 | 16.57532 | 610 ft | 6 kts | 168° |
| 2026-04-24 20:00 | 48.11054 | 16.57511 | 611 ft | 8 kts | 202° |
| 2026-04-24 20:01 | 48.10993 | 16.57468 | 615 ft | 11 kts | 208° |
| 2026-04-24 20:01 | 48.10970 | 16.57363 | 622 ft | 12 kts | 292° |
| 2026-04-24 20:01 | 48.10983 | 16.57320 | 613 ft | 0 kts | 294° |
| 2026-04-24 20:02 | 48.10985 | 16.57311 | 614 ft | 7 kts | 295° |
| 2026-04-24 20:02 | 48.11095 | 16.56967 | 613 ft | 70 kts | 295° |
| 2026-04-24 20:02 | 48.11403 | 16.56026 | 615 ft | 126 kts | 296° |
| 2026-04-24 20:02 | 48.11846 | 16.54668 | 624 ft | 166 kts | 296° |
| 2026-04-24 20:03 | 48.12331 | 16.53163 | 1278 ft | 153 kts | 295° |
| 2026-04-24 20:03 | 48.12572 | 16.51679 | 1968 ft | 151 kts | 269° |
| 2026-04-24 20:03 | 48.12144 | 16.50192 | 2381 ft | 167 kts | 230° |
| 2026-04-24 20:03 | 48.11096 | 16.49315 | 2820 ft | 184 kts | 201° |
| 2026-04-24 20:04 | 48.09773 | 16.48949 | 3272 ft | 201 kts | 189° |
| 2026-04-24 20:04 | 48.08311 | 16.48818 | 3749 ft | 220 kts | 187° |
| 2026-04-24 20:04 | 48.06722 | 16.48610 | 4330 ft | 233 kts | 193° |
| 2026-04-24 20:04 | 48.05185 | 16.47941 | 5249 ft | 228 kts | 211° |
| 2026-04-24 20:05 | 48.03835 | 16.46770 | 6151 ft | 227 kts | 219° |
| 2026-04-24 20:05 | 48.02456 | 16.45420 | 6718 ft | 247 kts | 219° |
| 2026-04-24 20:05 | 48.00959 | 16.43940 | 7153 ft | 270 kts | 218° |
| 2026-04-24 20:05 | 47.99279 | 16.42498 | 7796 ft | 288 kts | 204° |
| 2026-04-24 20:06 | 47.97260 | 16.42084 | 8633 ft | 302 kts | 177° |
| 2026-04-24 20:06 | 47.95170 | 16.42680 | 9492 ft | 310 kts | 168° |
| 2026-04-24 20:06 | 47.93061 | 16.43464 | 10302 ft | 317 kts | 167° |
| 2026-04-24 20:06 | 47.90855 | 16.44304 | 10683 ft | 339 kts | 167° |
| 2026-04-24 20:07 | 47.89305 | 16.44882 | 10875 ft | 355 kts | 167° |
| 2026-04-24 20:07 | 47.86045 | 16.46066 | 11703 ft | 367 kts | 167° |
| 2026-04-24 20:07 | 47.83554 | 16.46952 | 12518 ft | 371 kts | 167° |
| 2026-04-24 20:07 | 47.81022 | 16.47845 | 13317 ft | 375 kts | 167° |
| 2026-04-24 20:08 | 47.78476 | 16.48740 | 14081 ft | 379 kts | 167° |
| 2026-04-24 20:08 | 47.75888 | 16.49647 | 14802 ft | 382 kts | 167° |
| 2026-04-24 20:08 | 47.73284 | 16.50559 | 15504 ft | 386 kts | 167° |
| 2026-04-24 20:08 | 47.70653 | 16.51480 | 16204 ft | 390 kts | 167° |
| 2026-04-24 20:09 | 47.67997 | 16.52409 | 16893 ft | 394 kts | 167° |
| 2026-04-24 20:09 | 47.65368 | 16.53581 | 17563 ft | 398 kts | 155° |
| 2026-04-24 20:09 | 47.63037 | 16.55799 | 18211 ft | 400 kts | 137° |
| 2026-04-24 20:09 | 47.61248 | 16.58938 | 18811 ft | 400 kts | 119° |
| 2026-04-24 20:10 | 47.60031 | 16.62638 | 19386 ft | 401 kts | 110° |
| 2026-04-24 20:10 | 47.59029 | 16.66515 | 19965 ft | 404 kts | 108° |
| 2026-04-24 20:10 | 47.58028 | 16.70420 | 20543 ft | 408 kts | 110° |
| 2026-04-24 20:10 | 47.56754 | 16.74199 | 20966 ft | 415 kts | 120° |
| 2026-04-24 20:11 | 47.55013 | 16.77628 | 21558 ft | 418 kts | 131° |
| 2026-04-24 20:11 | 47.52929 | 16.80659 | 22145 ft | 422 kts | 136° |
| 2026-04-24 20:11 | 47.50770 | 16.83627 | 22706 ft | 425 kts | 136° |
| 2026-04-24 20:11 | 47.48598 | 16.86620 | 23265 ft | 428 kts | 136° |
| 2026-04-24 20:12 | 47.46413 | 16.89636 | 23789 ft | 432 kts | 136° |
| 2026-04-24 20:12 | 47.44214 | 16.92670 | 24271 ft | 434 kts | 136° |
| 2026-04-24 20:12 | 47.41999 | 16.95723 | 24760 ft | 436 kts | 136° |
| 2026-04-24 20:12 | 47.39805 | 16.98745 | 25215 ft | 438 kts | 136° |
| 2026-04-24 20:13 | 47.37567 | 17.01823 | 25665 ft | 441 kts | 136° |
| 2026-04-24 20:13 | 47.35320 | 17.04910 | 26108 ft | 444 kts | 136° |
| 2026-04-24 20:13 | 47.33049 | 17.08025 | 26544 ft | 446 kts | 136° |
| 2026-04-24 20:13 | 47.30772 | 17.11145 | 26954 ft | 449 kts | 136° |
| 2026-04-24 20:14 | 47.28477 | 17.14286 | 27370 ft | 451 kts | 136° |
| 2026-04-24 20:14 | 47.26172 | 17.17436 | 27774 ft | 454 kts | 136° |
| 2026-04-24 20:14 | 47.23852 | 17.20603 | 28156 ft | 456 kts | 136° |
| 2026-04-24 20:14 | 47.21517 | 17.23786 | 28524 ft | 459 kts | 136° |
| 2026-04-24 20:15 | 47.19242 | 17.26883 | 28881 ft | 461 kts | 136° |
| 2026-04-24 20:15 | 47.16879 | 17.30095 | 29240 ft | 463 kts | 136° |
| 2026-04-24 20:15 | 47.14506 | 17.33318 | 29578 ft | 466 kts | 136° |
| 2026-04-24 20:15 | 47.12116 | 17.36558 | 29911 ft | 468 kts | 136° |
| 2026-04-24 20:16 | 47.09715 | 17.39811 | 30226 ft | 471 kts | 136° |
| 2026-04-24 20:16 | 47.07304 | 17.43072 | 30524 ft | 473 kts | 136° |
| 2026-04-24 20:16 | 47.04875 | 17.46353 | 30806 ft | 475 kts | 136° |
| 2026-04-24 20:16 | 47.02441 | 17.49637 | 31098 ft | 477 kts | 135° |
| 2026-04-24 20:17 | 46.99992 | 17.52936 | 31438 ft | 478 kts | 135° |
| 2026-04-24 20:17 | 46.95127 | 17.59477 | 32251 ft | 476 kts | 135° |
| 2026-04-24 20:17 | 46.92690 | 17.62747 | 32627 ft | 475 kts | 135° |
| 2026-04-24 20:18 | 46.91040 | 17.64959 | 32870 ft | 475 kts | 135° |
| 2026-04-24 20:18 | 46.87817 | 17.69275 | 33363 ft | 474 kts | 135° |
| 2026-04-24 20:18 | 46.85385 | 17.72526 | 33711 ft | 473 kts | 135° |
| 2026-04-24 20:18 | 46.82957 | 17.75769 | 34044 ft | 473 kts | 135° |
| 2026-04-24 20:19 | 46.80527 | 17.79011 | 34333 ft | 472 kts | 135° |
| 2026-04-24 20:19 | 46.78104 | 17.82238 | 34619 ft | 472 kts | 135° |
| 2026-04-24 20:19 | 46.75679 | 17.85465 | 34898 ft | 471 kts | 135° |
| 2026-04-24 20:19 | 46.73256 | 17.88685 | 35160 ft | 471 kts | 135° |
| 2026-04-24 20:20 | 46.70834 | 17.91899 | 35409 ft | 471 kts | 135° |
| 2026-04-24 20:20 | 46.68415 | 17.95106 | 35654 ft | 470 kts | 135° |
| 2026-04-24 20:20 | 46.65988 | 17.98319 | 35903 ft | 470 kts | 135° |
| 2026-04-24 20:20 | 46.63570 | 18.01516 | 36137 ft | 470 kts | 135° |
| 2026-04-24 20:21 | 46.61152 | 18.04709 | 36377 ft | 469 kts | 135° |
| 2026-04-24 20:21 | 46.58761 | 18.07863 | 36608 ft | 469 kts | 135° |
| 2026-04-24 20:21 | 46.56344 | 18.11046 | 36834 ft | 469 kts | 135° |
| 2026-04-24 20:21 | 46.53927 | 18.14225 | 37057 ft | 468 kts | 135° |
| 2026-04-24 20:22 | 46.51516 | 18.17392 | 37274 ft | 467 kts | 135° |
| 2026-04-24 20:22 | 46.49104 | 18.20558 | 37475 ft | 467 kts | 135° |
| 2026-04-24 20:22 | 46.46693 | 18.23717 | 37695 ft | 466 kts | 135° |
| 2026-04-24 20:22 | 46.44284 | 18.26871 | 37873 ft | 466 kts | 135° |
| 2026-04-24 20:23 | 46.41873 | 18.30023 | 38058 ft | 466 kts | 135° |
| 2026-04-24 20:23 | 46.39461 | 18.33173 | 38243 ft | 465 kts | 135° |
| 2026-04-24 20:23 | 46.37060 | 18.36303 | 38410 ft | 465 kts | 135° |
| 2026-04-24 20:23 | 46.34687 | 18.39395 | 38561 ft | 465 kts | 134° |
| 2026-04-24 20:24 | 46.29877 | 18.45648 | 38845 ft | 464 kts | 135° |
| 2026-04-24 20:24 | 46.27474 | 18.48766 | 38964 ft | 464 kts | 135° |
| 2026-04-24 20:24 | 46.25075 | 18.51875 | 39029 ft | 464 kts | 135° |
| 2026-04-24 20:25 | 46.20272 | 18.58088 | 39029 ft | 463 kts | 135° |
| 2026-04-24 20:25 | 46.15472 | 18.64282 | 39028 ft | 462 kts | 135° |
| 2026-04-24 20:26 | 46.10671 | 18.70465 | 39028 ft | 462 kts | 134° |
| 2026-04-24 20:26 | 46.05873 | 18.76627 | 39025 ft | 462 kts | 135° |
| 2026-04-24 20:27 | 46.01076 | 18.82773 | 39027 ft | 462 kts | 135° |
| 2026-04-24 20:27 | 45.96269 | 18.88919 | 39027 ft | 462 kts | 134° |
| 2026-04-24 20:28 | 45.91228 | 18.94677 | 39030 ft | 465 kts | 143° |
| 2026-04-24 20:28 | 45.85789 | 18.99626 | 39028 ft | 466 kts | 144° |
| 2026-04-24 20:29 | 45.80308 | 19.04606 | 39030 ft | 466 kts | 144° |
| 2026-04-24 20:29 | 45.74835 | 19.09582 | 39033 ft | 466 kts | 144° |
| 2026-04-24 20:30 | 45.69363 | 19.14545 | 39032 ft | 465 kts | 144° |
| 2026-04-24 20:30 | 45.63894 | 19.19491 | 39033 ft | 465 kts | 144° |
| 2026-04-24 20:31 | 45.58463 | 19.24392 | 39038 ft | 465 kts | 144° |
| 2026-04-24 20:31 | 45.52985 | 19.29323 | 39037 ft | 464 kts | 144° |
| 2026-04-24 20:32 | 45.47514 | 19.34238 | 39037 ft | 464 kts | 144° |
| 2026-04-24 20:32 | 45.42082 | 19.39107 | 39038 ft | 463 kts | 144° |
| 2026-04-24 20:33 | 45.36624 | 19.43986 | 39037 ft | 463 kts | 144° |
| 2026-04-24 20:33 | 45.31168 | 19.48852 | 39039 ft | 462 kts | 144° |
| 2026-04-24 20:34 | 45.25713 | 19.53707 | 39035 ft | 462 kts | 144° |
| 2026-04-24 20:34 | 45.20377 | 19.58725 | 39039 ft | 460 kts | 141° |
| 2026-04-24 20:35 | 45.15163 | 19.63992 | 39039 ft | 460 kts | 141° |
| 2026-04-24 20:35 | 45.09936 | 19.69199 | 39038 ft | 459 kts | 141° |
| 2026-04-24 20:36 | 45.04690 | 19.74368 | 39036 ft | 459 kts | 141° |
| 2026-04-24 20:36 | 44.99482 | 19.79481 | 39039 ft | 458 kts | 141° |
| 2026-04-24 20:37 | 44.94242 | 19.84614 | 39039 ft | 458 kts | 142° |
| 2026-04-24 20:37 | 44.89006 | 19.89731 | 39040 ft | 458 kts | 142° |
| 2026-04-24 20:38 | 44.83770 | 19.94839 | 39039 ft | 457 kts | 142° |
| 2026-04-24 20:38 | 44.78532 | 19.99936 | 39043 ft | 457 kts | 142° |
| 2026-04-24 20:39 | 44.73299 | 20.05017 | 39047 ft | 457 kts | 142° |
| 2026-04-24 20:39 | 44.68071 | 20.10081 | 39048 ft | 456 kts | 142° |
| 2026-04-24 20:40 | 44.62839 | 20.15138 | 39048 ft | 456 kts | 142° |
| 2026-04-24 20:40 | 44.57606 | 20.20185 | 39049 ft | 456 kts | 142° |
| 2026-04-24 20:41 | 44.52409 | 20.25186 | 39051 ft | 456 kts | 142° |
| 2026-04-24 20:41 | 44.47169 | 20.30217 | 39055 ft | 456 kts | 142° |
| 2026-04-24 20:42 | 44.42044 | 20.35127 | 39059 ft | 456 kts | 142° |
| 2026-04-24 20:42 | 44.36809 | 20.40131 | 39065 ft | 456 kts | 143° |
| 2026-04-24 20:43 | 44.31592 | 20.45107 | 39060 ft | 456 kts | 143° |
| 2026-04-24 20:43 | 44.27235 | 20.49255 | 39063 ft | 456 kts | 143° |
| 2026-04-24 20:44 | 44.21138 | 20.55045 | 39062 ft | 455 kts | 143° |
| 2026-04-24 20:44 | 44.16779 | 20.59176 | 39066 ft | 456 kts | 143° |
| 2026-04-24 20:45 | 44.11532 | 20.64139 | 39067 ft | 456 kts | 143° |
| 2026-04-24 20:45 | 44.06285 | 20.69091 | 39069 ft | 456 kts | 143° |
| 2026-04-24 20:46 | 44.01035 | 20.74035 | 39071 ft | 456 kts | 143° |
| 2026-04-24 20:46 | 43.95783 | 20.78970 | 39070 ft | 455 kts | 143° |
| 2026-04-24 20:47 | 43.90539 | 20.83885 | 39061 ft | 455 kts | 143° |
| 2026-04-24 20:47 | 43.85276 | 20.88807 | 39067 ft | 455 kts | 143° |
| 2026-04-24 20:48 | 43.80054 | 20.93682 | 39071 ft | 455 kts | 144° |
| 2026-04-24 20:48 | 43.74959 | 20.98879 | 39063 ft | 454 kts | 139° |
| 2026-04-24 20:49 | 43.69993 | 21.04285 | 39064 ft | 454 kts | 139° |
| 2026-04-24 20:49 | 43.65044 | 21.09648 | 39067 ft | 454 kts | 140° |
| 2026-04-24 20:50 | 43.60064 | 21.15027 | 39058 ft | 454 kts | 140° |
| 2026-04-24 20:50 | 43.55120 | 21.20354 | 39060 ft | 454 kts | 140° |
| 2026-04-24 20:51 | 43.50139 | 21.25709 | 39061 ft | 454 kts | 140° |
| 2026-04-24 20:51 | 43.45155 | 21.31057 | 39063 ft | 454 kts | 140° |
| 2026-04-24 20:52 | 43.40163 | 21.36401 | 39063 ft | 454 kts | 140° |
| 2026-04-24 20:52 | 43.35172 | 21.41733 | 39062 ft | 454 kts | 140° |
| 2026-04-24 20:53 | 43.30183 | 21.47053 | 39063 ft | 454 kts | 140° |
| 2026-04-24 20:53 | 43.25184 | 21.52370 | 39066 ft | 455 kts | 140° |
| 2026-04-24 20:54 | 43.20173 | 21.57689 | 39067 ft | 455 kts | 140° |
| 2026-04-24 20:54 | 43.15159 | 21.63000 | 39069 ft | 455 kts | 140° |
| 2026-04-24 20:55 | 43.10173 | 21.68270 | 39075 ft | 455 kts | 140° |
| 2026-04-24 20:55 | 43.05155 | 21.73562 | 39067 ft | 454 kts | 140° |
| 2026-04-24 20:56 | 43.00154 | 21.78825 | 39058 ft | 453 kts | 140° |
| 2026-04-24 20:56 | 42.95172 | 21.84058 | 39056 ft | 453 kts | 140° |
| 2026-04-24 20:57 | 42.90166 | 21.89304 | 39053 ft | 453 kts | 140° |
| 2026-04-24 20:57 | 42.85193 | 21.94505 | 39057 ft | 453 kts | 140° |
| 2026-04-24 20:58 | 42.80183 | 21.99734 | 39058 ft | 454 kts | 140° |
| 2026-04-24 20:58 | 42.75082 | 22.04815 | 39062 ft | 456 kts | 146° |
| 2026-04-24 20:59 | 42.69436 | 22.08770 | 39064 ft | 459 kts | 156° |
| 2026-04-24 20:59 | 42.63377 | 22.11414 | 39062 ft | 460 kts | 162° |
| 2026-04-24 21:00 | 42.57220 | 22.13839 | 39062 ft | 461 kts | 162° |
| 2026-04-24 21:00 | 42.51059 | 22.16282 | 39062 ft | 461 kts | 162° |
| 2026-04-24 21:01 | 42.44899 | 22.18721 | 39062 ft | 461 kts | 162° |
| 2026-04-24 21:01 | 42.38729 | 22.21159 | 39064 ft | 461 kts | 162° |
| 2026-04-24 21:02 | 42.32598 | 22.23575 | 39065 ft | 461 kts | 162° |
| 2026-04-24 21:02 | 42.26304 | 22.25368 | 39053 ft | 463 kts | 168° |
| 2026-04-24 21:03 | 42.19959 | 22.26845 | 39050 ft | 463 kts | 168° |
| 2026-04-24 21:03 | 42.13603 | 22.28338 | 39043 ft | 463 kts | 168° |
| 2026-04-24 21:04 | 42.07256 | 22.29830 | 39042 ft | 463 kts | 168° |
| 2026-04-24 21:04 | 42.00903 | 22.31321 | 39042 ft | 463 kts | 168° |
| 2026-04-24 21:05 | 41.94604 | 22.32797 | 39026 ft | 462 kts | 168° |
| 2026-04-24 21:05 | 41.88265 | 22.34278 | 39025 ft | 463 kts | 168° |
| 2026-04-24 21:06 | 41.81923 | 22.35757 | 39032 ft | 463 kts | 168° |
| 2026-04-24 21:06 | 41.75578 | 22.37233 | 39029 ft | 463 kts | 168° |
| 2026-04-24 21:07 | 41.69229 | 22.38708 | 39032 ft | 463 kts | 168° |
| 2026-04-24 21:07 | 41.62884 | 22.40179 | 39027 ft | 462 kts | 168° |
| 2026-04-24 21:08 | 41.56565 | 22.41640 | 39023 ft | 460 kts | 168° |
| 2026-04-24 21:08 | 41.50246 | 22.43100 | 39022 ft | 461 kts | 168° |
| 2026-04-24 21:09 | 41.43970 | 22.44546 | 39020 ft | 461 kts | 168° |
| 2026-04-24 21:09 | 41.37659 | 22.45997 | 39017 ft | 460 kts | 168° |
| 2026-04-24 21:10 | 41.31347 | 22.47446 | 39011 ft | 460 kts | 168° |
| 2026-04-24 21:10 | 41.25024 | 22.48895 | 39010 ft | 460 kts | 168° |
| 2026-04-24 21:11 | 41.18711 | 22.50339 | 39000 ft | 460 kts | 167° |
| 2026-04-24 21:11 | 41.12551 | 22.52485 | 39000 ft | 456 kts | 157° |
| 2026-04-24 21:12 | 41.07741 | 22.55285 | 39003 ft | 452 kts | 149° |
| 2026-04-24 21:12 | 41.01313 | 22.59912 | 39010 ft | 452 kts | 148° |
| 2026-04-24 21:13 | 40.95768 | 22.63865 | 39007 ft | 452 kts | 149° |
| 2026-04-24 21:13 | 40.90221 | 22.67797 | 39011 ft | 452 kts | 149° |
| 2026-04-24 21:14 | 40.84680 | 22.71717 | 39004 ft | 452 kts | 149° |
| 2026-04-24 21:14 | 40.79150 | 22.75621 | 38483 ft | 450 kts | 148° |
| 2026-04-24 21:15 | 40.78253 | 22.76254 | 38257 ft | 450 kts | 148° |
| 2026-04-24 21:15 | 40.75443 | 22.78235 | 37490 ft | 452 kts | 148° |
| 2026-04-24 21:15 | 40.72665 | 22.80192 | 36676 ft | 454 kts | 148° |
| 2026-04-24 21:15 | 40.69875 | 22.82155 | 35859 ft | 456 kts | 148° |
| 2026-04-24 21:16 | 40.67097 | 22.84108 | 35124 ft | 455 kts | 148° |
| 2026-04-24 21:16 | 40.64304 | 22.86068 | 34435 ft | 453 kts | 148° |
| 2026-04-24 21:16 | 40.61536 | 22.88009 | 33701 ft | 450 kts | 148° |
| 2026-04-24 21:16 | 40.58763 | 22.89953 | 32737 ft | 453 kts | 147° |
| 2026-04-24 21:17 | 40.55971 | 22.91909 | 31718 ft | 456 kts | 147° |
| 2026-04-24 21:17 | 40.53156 | 22.93879 | 30721 ft | 460 kts | 147° |
| 2026-04-24 21:17 | 40.50323 | 22.95859 | 29655 ft | 463 kts | 147° |
| 2026-04-24 21:17 | 40.48439 | 22.97174 | 29085 ft | 462 kts | 147° |
| 2026-04-24 21:18 | 40.44606 | 22.99636 | 28384 ft | 454 kts | 153° |
| 2026-04-24 21:18 | 40.41684 | 23.01090 | 27911 ft | 446 kts | 154° |
| 2026-04-24 21:18 | 40.38797 | 23.02521 | 27329 ft | 440 kts | 154° |
| 2026-04-24 21:18 | 40.35953 | 23.03937 | 26755 ft | 434 kts | 154° |
| 2026-04-24 21:19 | 40.33146 | 23.05336 | 26189 ft | 430 kts | 154° |
| 2026-04-24 21:19 | 40.30403 | 23.06702 | 25630 ft | 425 kts | 154° |
| 2026-04-24 21:19 | 40.27649 | 23.08072 | 25040 ft | 422 kts | 154° |
| 2026-04-24 21:19 | 40.24913 | 23.09432 | 24503 ft | 418 kts | 155° |
| 2026-04-24 21:20 | 40.19496 | 23.12119 | 23304 ft | 414 kts | 155° |
| 2026-04-24 21:20 | 40.16816 | 23.13446 | 22779 ft | 408 kts | 155° |
| 2026-04-24 21:20 | 40.14174 | 23.14753 | 22210 ft | 404 kts | 155° |
| 2026-04-24 21:21 | 40.11560 | 23.16046 | 21651 ft | 399 kts | 155° |
| 2026-04-24 21:21 | 40.08967 | 23.17328 | 21098 ft | 396 kts | 155° |
| 2026-04-24 21:21 | 40.06409 | 23.18592 | 20543 ft | 392 kts | 155° |
| 2026-04-24 21:21 | 40.03863 | 23.19849 | 20007 ft | 389 kts | 155° |
| 2026-04-24 21:22 | 40.01372 | 23.21077 | 19442 ft | 387 kts | 155° |
| 2026-04-24 21:22 | 39.98858 | 23.22316 | 18910 ft | 384 kts | 155° |
| 2026-04-24 21:22 | 39.96365 | 23.23544 | 18329 ft | 383 kts | 156° |
| 2026-04-24 21:22 | 39.94686 | 23.24370 | 17980 ft | 380 kts | 156° |
| 2026-04-24 21:23 | 39.91432 | 23.25969 | 17260 ft | 375 kts | 156° |
| 2026-04-24 21:23 | 39.89003 | 23.27162 | 16718 ft | 372 kts | 156° |
| 2026-04-24 21:23 | 39.86591 | 23.28346 | 16176 ft | 369 kts | 156° |
| 2026-04-24 21:23 | 39.84194 | 23.29522 | 15634 ft | 366 kts | 156° |
| 2026-04-24 21:24 | 39.81821 | 23.30686 | 15118 ft | 363 kts | 156° |
| 2026-04-24 21:24 | 39.79459 | 23.31844 | 14584 ft | 362 kts | 156° |
| 2026-04-24 21:24 | 39.77108 | 23.32994 | 14065 ft | 360 kts | 157° |
| 2026-04-24 21:24 | 39.74775 | 23.34136 | 13506 ft | 358 kts | 157° |
| 2026-04-24 21:25 | 39.72458 | 23.35265 | 13034 ft | 353 kts | 157° |
| 2026-04-24 21:25 | 39.70173 | 23.36378 | 12552 ft | 349 kts | 156° |
| 2026-04-24 21:25 | 39.67913 | 23.37477 | 12081 ft | 345 kts | 156° |
| 2026-04-24 21:25 | 39.65698 | 23.38555 | 11622 ft | 341 kts | 156° |
| 2026-04-24 21:26 | 39.63478 | 23.39635 | 11156 ft | 338 kts | 156° |
| 2026-04-24 21:26 | 39.61285 | 23.40701 | 10696 ft | 335 kts | 156° |
| 2026-04-24 21:26 | 39.59110 | 23.41757 | 10366 ft | 329 kts | 156° |
| 2026-04-24 21:26 | 39.57013 | 23.42770 | 10241 ft | 315 kts | 155° |
| 2026-04-24 21:27 | 39.54999 | 23.43743 | 10121 ft | 302 kts | 155° |
| 2026-04-24 21:27 | 39.53046 | 23.44689 | 9805 ft | 298 kts | 155° |
| 2026-04-24 21:27 | 39.51127 | 23.45621 | 9572 ft | 289 kts | 155° |
| 2026-04-24 21:27 | 39.49885 | 23.46223 | 9423 ft | 289 kts | 155° |
| 2026-04-24 21:28 | 39.47363 | 23.47451 | 8926 ft | 290 kts | 155° |
| 2026-04-24 21:28 | 39.45476 | 23.48366 | 8546 ft | 288 kts | 155° |
| 2026-04-24 21:28 | 39.43626 | 23.49261 | 8173 ft | 286 kts | 155° |
| 2026-04-24 21:28 | 39.41770 | 23.50158 | 7797 ft | 284 kts | 156° |
| 2026-04-24 21:29 | 39.39926 | 23.51050 | 7421 ft | 282 kts | 156° |
| 2026-04-24 21:29 | 39.38092 | 23.51937 | 7042 ft | 281 kts | 156° |
| 2026-04-24 21:29 | 39.37472 | 23.52238 | 6908 ft | 281 kts | 156° |
| 2026-04-24 21:29 | 39.35972 | 23.52963 | 6601 ft | 280 kts | 156° |
| 2026-04-24 21:30 | 39.34151 | 23.53844 | 6205 ft | 279 kts | 156° |
| 2026-04-24 21:30 | 39.32340 | 23.54719 | 5826 ft | 277 kts | 157° |
| 2026-04-24 21:30 | 39.30541 | 23.55588 | 5452 ft | 275 kts | 157° |
| 2026-04-24 21:30 | 39.28751 | 23.56452 | 5090 ft | 274 kts | 157° |
| 2026-04-24 21:31 | 39.26967 | 23.57313 | 4713 ft | 273 kts | 158° |
| 2026-04-24 21:31 | 39.25220 | 23.58155 | 4379 ft | 270 kts | 158° |
| 2026-04-24 21:31 | 39.23498 | 23.58983 | 4266 ft | 258 kts | 158° |
| 2026-04-24 21:31 | 39.21851 | 23.59774 | 4163 ft | 247 kts | 158° |
| 2026-04-24 21:32 | 39.20271 | 23.60532 | 4072 ft | 237 kts | 157° |
| 2026-04-24 21:32 | 39.18742 | 23.61207 | 4028 ft | 230 kts | 169° |
| 2026-04-24 21:32 | 39.17132 | 23.61042 | 4029 ft | 237 kts | 201° |
| 2026-04-24 21:32 | 39.15651 | 23.60149 | 3971 ft | 232 kts | 207° |
| 2026-04-24 21:33 | 39.14257 | 23.59199 | 3888 ft | 221 kts | 208° |
| 2026-04-24 21:33 | 39.13373 | 23.58587 | 3828 ft | 214 kts | 208° |
| 2026-04-24 21:33 | 39.12074 | 23.57705 | 3627 ft | 209 kts | 207° |
| 2026-04-24 21:33 | 39.10366 | 23.56575 | 3297 ft | 207 kts | 207° |
| 2026-04-24 21:34 | 39.09082 | 23.55732 | 3037 ft | 206 kts | 207° |
| 2026-04-24 21:34 | 39.08220 | 23.55169 | 2860 ft | 206 kts | 207° |
| 2026-04-24 21:34 | 39.06959 | 23.54350 | 2611 ft | 205 kts | 207° |
| 2026-04-24 21:34 | 39.05693 | 23.53532 | 2403 ft | 201 kts | 207° |
| 2026-04-24 21:35 | 39.04502 | 23.52766 | 2357 ft | 184 kts | 207° |
| 2026-04-24 21:35 | 39.03394 | 23.52056 | 2253 ft | 172 kts | 207° |
| 2026-04-24 21:35 | 39.02382 | 23.51335 | 2138 ft | 162 kts | 217° |
| 2026-04-24 21:35 | 39.01633 | 23.50318 | 1979 ft | 153 kts | 240° |
| 2026-04-24 21:36 | 39.01287 | 23.49045 | 1813 ft | 152 kts | 266° |
| 2026-04-24 21:36 | 39.01409 | 23.47714 | 1612 ft | 150 kts | 292° |
| 2026-04-24 21:36 | 39.01964 | 23.46626 | 1449 ft | 145 kts | 320° |
| 2026-04-24 21:36 | 39.02837 | 23.46000 | 1434 ft | 146 kts | 342° |
| 2026-04-24 21:37 | 39.03832 | 23.45733 | 1372 ft | 146 kts | 353° |
| 2026-04-24 21:37 | 39.04836 | 23.45610 | 1412 ft | 145 kts | 356° |
| 2026-04-24 21:37 | 39.05846 | 23.45554 | 1449 ft | 146 kts | 359° |
| 2026-04-24 21:37 | 39.06858 | 23.45598 | 1503 ft | 146 kts | 6° |
| 2026-04-24 21:38 | 39.07850 | 23.45851 | 1584 ft | 146 kts | 17° |
| 2026-04-24 21:38 | 39.08797 | 23.46321 | 1588 ft | 146 kts | 22° |
| 2026-04-24 21:38 | 39.09674 | 23.46820 | 1497 ft | 133 kts | 23° |
| 2026-04-24 21:38 | 39.10540 | 23.47246 | 1389 ft | 133 kts | 17° |
| 2026-04-24 21:39 | 39.11424 | 23.47604 | 1187 ft | 133 kts | 18° |
| 2026-04-24 21:39 | 39.12303 | 23.47979 | 916 ft | 132 kts | 18° |
| 2026-04-24 21:39 | 39.13180 | 23.48351 | 727 ft | 133 kts | 18° |
| 2026-04-24 21:39 | 39.14060 | 23.48737 | 595 ft | 133 kts | 18° |
| 2026-04-24 21:40 | 39.14939 | 23.49129 | 520 ft | 134 kts | 19° |
| 2026-04-24 21:40 | 39.15808 | 23.49533 | 312 ft | 134 kts | 19° |
| 2026-04-24 21:40 | 39.16682 | 23.49904 | 111 ft | 132 kts | 19° |
| 2026-04-24 21:40 | 39.17529 | 23.50285 | 40 ft | 111 kts | 20° |
| 2026-04-24 21:41 | 39.17970 | 23.50479 | 46 ft | 24 kts | 20° |
| 2026-04-24 21:41 | 39.18206 | 23.50589 | 56 ft | 43 kts | 19° |
| 2026-04-24 21:41 | 39.18415 | 23.50691 | 58 ft | 9 kts | 358° |
| 2026-04-24 21:41 | 39.18407 | 23.50651 | 57 ft | 7 kts | 183° |
| 2026-04-24 21:42 | 39.18308 | 23.50635 | 57 ft | 20 kts | 199° |
| 2026-04-24 21:42 | 39.18153 | 23.50565 | 50 ft | 28 kts | 199° |
| 2026-04-24 21:42 | 39.17975 | 23.50484 | 47 ft | 19 kts | 205° |
| 2026-04-24 21:42 | 39.17925 | 23.50387 | 43 ft | 0 kts | 251° |
| 2026-04-24 21:43 | 39.17913 | 23.50354 | 42 ft | 8 kts | 236° |
| 2026-04-24 21:43 | 39.17894 | 23.50304 | 41 ft | 7 kts | 277° |
| 2026-04-24 21:44 | 39.17904 | 23.50259 | 41 ft | 4 kts | 288° |
| 2026-04-24 21:44 | 39.17908 | 23.50243 | 40 ft | 0 kts | 287° |